Portada
METAR-TAF:

METAR-TAF

Aeroports :

Gaziantep, Turquia

latitud: 37-05N, longitud: 037-22E, altitud: 701 m

Observació

L'informe es va fer fa 27 minuts, a les 17:50 UTC
Vent 2 kt amb direcció variable
Temperatura 8°C
Humitat 49%
Pressió 1018 hPa
Visibilitat 10 km o més
sense núvols per sota de 1500 mi sense presència de cumulonimbus.

METAR: LTAJ 261750Z VRB02KT CAVOK 08/M02 Q1018 NOSIG RMK RWY10 VRB01KT 7AC120

Hora: 21:17 (18:17 UTC)

Pronòstic

L'informe es va fer fa 1 hora i 37 minuts, a les 16:40 UTC
Pronòstic vàlid del 26 a les 18 UTC al 27 a les 18 UTC
Vent 8 kt del Nord/Nord-Est
Visibilitat 10 km o més
sense núvols per sota de 1500 mi sense presència de cumulonimbus.

TAF: LTAJ 261640Z 2618/2718 03008KT CAVOK

Observacions i pronòstics meteorològics de més de 4000 aeroports (METAR i TAF).

Les estacions disponibles són els punts grocs i vermells al mapa.

Posi el ratolí al punt desitjat per veure el nom de l'estació.

Feu clic per veure les observacions i els pronòstics meteorològics.

Per canviar el mapa: feu clic els botons verds amb una creu de color negre per apropar; al botó verd amb un guió per allunyar la imatge; o en les fletxes verdes per a mapes adjacents.


METAR-TAF: